sensor_id;sensor_type;location;lat;lon;timestamp;P1;durP1;ratioP1;P2;durP2;ratioP2
21827;SDS011;11076;47.942;11.804;2022-07-29T00:01:52;1.65;;;1.45;;
21827;SDS011;11076;47.942;11.804;2022-07-29T00:06:55;1.58;;;1.48;;
21827;SDS011;11076;47.942;11.804;2022-07-29T00:11:59;1.70;;;1.60;;
21827;SDS011;11076;47.942;11.804;2022-07-29T00:17:02;1.90;;;1.63;;
21827;SDS011;11076;47.942;11.804;2022-07-29T00:22:05;1.38;;;1.27;;
21827;SDS011;11076;47.942;11.804;2022-07-29T00:27:07;1.65;;;1.55;;
21827;SDS011;11076;47.942;11.804;2022-07-29T00:32:10;2.90;;;1.50;;
21827;SDS011;11076;47.942;11.804;2022-07-29T00:37:12;1.55;;;1.45;;
21827;SDS011;11076;47.942;11.804;2022-07-29T00:42:15;1.35;;;1.25;;
21827;SDS011;11076;47.942;11.804;2022-07-29T00:47:18;2.63;;;1.80;;
21827;SDS011;11076;47.942;11.804;2022-07-29T00:52:20;3.03;;;1.70;;
21827;SDS011;11076;47.942;11.804;2022-07-29T00:57:23;2.70;;;1.90;;
21827;SDS011;11076;47.942;11.804;2022-07-29T01:02:25;2.22;;;1.83;;
21827;SDS011;11076;47.942;11.804;2022-07-29T01:07:28;2.97;;;1.92;;
21827;SDS011;11076;47.942;11.804;2022-07-29T01:12:32;3.20;;;1.65;;
21827;SDS011;11076;47.942;11.804;2022-07-29T01:23:13;2.50;;;2.20;;
21827;SDS011;11076;47.942;11.804;2022-07-29T01:28:55;3.28;;;2.00;;
21827;SDS011;11076;47.942;11.804;2022-07-29T01:34:24;2.35;;;2.15;;
21827;SDS011;11076;47.942;11.804;2022-07-29T01:39:40;3.92;;;2.22;;
21827;SDS011;11076;47.942;11.804;2022-07-29T01:44:48;1.85;;;1.70;;
21827;SDS011;11076;47.942;11.804;2022-07-29T01:49:58;1.90;;;1.70;;
21827;SDS011;11076;47.942;11.804;2022-07-29T01:55:05;3.25;;;1.95;;
21827;SDS011;11076;47.942;11.804;2022-07-29T02:00:11;2.85;;;1.80;;
21827;SDS011;11076;47.942;11.804;2022-07-29T02:05:17;1.60;;;1.50;;
21827;SDS011;11076;47.942;11.804;2022-07-29T02:10:25;1.85;;;1.52;;
21827;SDS011;11076;47.942;11.804;2022-07-29T02:15:30;3.53;;;2.03;;
21827;SDS011;11076;47.942;11.804;2022-07-29T02:20:35;2.03;;;1.48;;
21827;SDS011;11076;47.942;11.804;2022-07-29T02:25:40;1.52;;;1.27;;
21827;SDS011;11076;47.942;11.804;2022-07-29T02:30:44;1.65;;;1.55;;
21827;SDS011;11076;47.942;11.804;2022-07-29T02:35:48;2.40;;;1.30;;
21827;SDS011;11076;47.942;11.804;2022-07-29T02:40:52;2.05;;;1.20;;
21827;SDS011;11076;47.942;11.804;2022-07-29T02:45:55;3.65;;;1.48;;
21827;SDS011;11076;47.942;11.804;2022-07-29T02:51:08;3.03;;;1.40;;
21827;SDS011;11076;47.942;11.804;2022-07-29T02:56:16;2.97;;;1.70;;
21827;SDS011;11076;47.942;11.804;2022-07-29T03:01:21;1.42;;;1.23;;
21827;SDS011;11076;47.942;11.804;2022-07-29T03:06:26;1.98;;;1.60;;
21827;SDS011;11076;47.942;11.804;2022-07-29T03:11:29;2.10;;;1.55;;
21827;SDS011;11076;47.942;11.804;2022-07-29T03:16:33;3.88;;;1.75;;
21827;SDS011;11076;47.942;11.804;2022-07-29T03:21:43;3.63;;;2.30;;
21827;SDS011;11076;47.942;11.804;2022-07-29T03:26:45;1.52;;;1.40;;
21827;SDS011;11076;47.942;11.804;2022-07-29T03:31:47;1.95;;;1.77;;
21827;SDS011;11076;47.942;11.804;2022-07-29T03:36:50;4.32;;;1.73;;
21827;SDS011;11076;47.942;11.804;2022-07-29T03:41:53;1.65;;;1.55;;
21827;SDS011;11076;47.942;11.804;2022-07-29T03:46:59;1.90;;;1.80;;
21827;SDS011;11076;47.942;11.804;2022-07-29T03:52:04;2.13;;;1.90;;
21827;SDS011;11076;47.942;11.804;2022-07-29T03:57:08;7.43;;;2.42;;
21827;SDS011;11076;47.942;11.804;2022-07-29T04:02:13;2.75;;;2.53;;
21827;SDS011;11076;47.942;11.804;2022-07-29T04:07:18;5.97;;;2.78;;
21827;SDS011;11076;47.942;11.804;2022-07-29T04:12:21;2.75;;;2.42;;
21827;SDS011;11076;47.942;11.804;2022-07-29T04:17:23;2.75;;;2.35;;
21827;SDS011;11076;47.942;11.804;2022-07-29T04:22:26;2.97;;;1.77;;
21827;SDS011;11076;47.942;11.804;2022-07-29T04:27:28;2.30;;;2.08;;
21827;SDS011;11076;47.942;11.804;2022-07-29T04:32:30;3.67;;;1.95;;
21827;SDS011;11076;47.942;11.804;2022-07-29T04:37:33;2.70;;;2.17;;
21827;SDS011;11076;47.942;11.804;2022-07-29T04:42:35;5.28;;;1.75;;
21827;SDS011;11076;47.942;11.804;2022-07-29T04:47:38;4.25;;;2.10;;
21827;SDS011;11076;47.942;11.804;2022-07-29T04:52:40;1.55;;;1.45;;
21827;SDS011;11076;47.942;11.804;2022-07-29T04:57:42;3.85;;;1.70;;
21827;SDS011;11076;47.942;11.804;2022-07-29T05:02:45;1.70;;;1.60;;
21827;SDS011;11076;47.942;11.804;2022-07-29T05:07:47;2.45;;;1.60;;
21827;SDS011;11076;47.942;11.804;2022-07-29T05:12:50;2.05;;;1.50;;
21827;SDS011;11076;47.942;11.804;2022-07-29T05:17:52;2.25;;;1.75;;
21827;SDS011;11076;47.942;11.804;2022-07-29T05:22:55;6.65;;;2.50;;
21827;SDS011;11076;47.942;11.804;2022-07-29T05:27:59;2.22;;;1.80;;
21827;SDS011;11076;47.942;11.804;2022-07-29T05:33:01;4.25;;;2.00;;
21827;SDS011;11076;47.942;11.804;2022-07-29T05:38:04;3.30;;;1.85;;
21827;SDS011;11076;47.942;11.804;2022-07-29T05:43:06;2.92;;;1.60;;
21827;SDS011;11076;47.942;11.804;2022-07-29T05:48:09;2.55;;;1.42;;
21827;SDS011;11076;47.942;11.804;2022-07-29T05:53:11;3.65;;;2.00;;
21827;SDS011;11076;47.942;11.804;2022-07-29T05:58:14;3.90;;;2.40;;
21827;SDS011;11076;47.942;11.804;2022-07-29T06:03:16;1.73;;;1.63;;
21827;SDS011;11076;47.942;11.804;2022-07-29T06:08:19;2.00;;;1.90;;
21827;SDS011;11076;47.942;11.804;2022-07-29T06:13:21;2.78;;;1.98;;
21827;SDS011;11076;47.942;11.804;2022-07-29T06:18:24;2.72;;;1.95;;
21827;SDS011;11076;47.942;11.804;2022-07-29T06:23:26;3.15;;;1.65;;
21827;SDS011;11076;47.942;11.804;2022-07-29T06:28:28;2.33;;;2.13;;
21827;SDS011;11076;47.942;11.804;2022-07-29T06:33:31;5.63;;;1.75;;
21827;SDS011;11076;47.942;11.804;2022-07-29T06:38:33;1.42;;;1.30;;
21827;SDS011;11076;47.942;11.804;2022-07-29T06:43:37;1.17;;;1.10;;
21827;SDS011;11076;47.942;11.804;2022-07-29T06:48:43;2.42;;;1.60;;
21827;SDS011;11076;47.942;11.804;2022-07-29T06:53:46;1.70;;;1.60;;
21827;SDS011;11076;47.942;11.804;2022-07-29T06:58:48;2.75;;;1.90;;
21827;SDS011;11076;47.942;11.804;2022-07-29T07:03:51;1.55;;;1.45;;
21827;SDS011;11076;47.942;11.804;2022-07-29T07:08:54;5.15;;;1.70;;
21827;SDS011;11076;47.942;11.804;2022-07-29T07:13:56;2.03;;;1.45;;
21827;SDS011;11076;47.942;11.804;2022-07-29T07:19:01;2.05;;;1.90;;
21827;SDS011;11076;47.942;11.804;2022-07-29T07:24:04;2.47;;;1.70;;
21827;SDS011;11076;47.942;11.804;2022-07-29T07:29:07;2.53;;;1.90;;
21827;SDS011;11076;47.942;11.804;2022-07-29T07:34:09;2.38;;;1.90;;
21827;SDS011;11076;47.942;11.804;2022-07-29T07:39:11;2.72;;;1.85;;
21827;SDS011;11076;47.942;11.804;2022-07-29T07:44:14;4.82;;;1.50;;
21827;SDS011;11076;47.942;11.804;2022-07-29T07:49:17;1.33;;;1.23;;
21827;SDS011;11076;47.942;11.804;2022-07-29T07:54:19;1.90;;;1.80;;
21827;SDS011;11076;47.942;11.804;2022-07-29T07:59:22;1.58;;;1.27;;
21827;SDS011;11076;47.942;11.804;2022-07-29T08:04:24;1.65;;;1.30;;
21827;SDS011;11076;47.942;11.804;2022-07-29T08:09:28;1.50;;;1.40;;
21827;SDS011;11076;47.942;11.804;2022-07-29T08:14:31;1.15;;;1.15;;
21827;SDS011;11076;47.942;11.804;2022-07-29T08:19:34;1.77;;;1.25;;
21827;SDS011;11076;47.942;11.804;2022-07-29T08:24:38;1.58;;;1.45;;
21827;SDS011;11076;47.942;11.804;2022-07-29T08:29:54;2.63;;;1.17;;
21827;SDS011;11076;47.942;11.804;2022-07-29T08:34:57;5.05;;;1.40;;
21827;SDS011;11076;47.942;11.804;2022-07-29T08:40:00;1.48;;;1.38;;
21827;SDS011;11076;47.942;11.804;2022-07-29T08:45:03;1.70;;;1.60;;
21827;SDS011;11076;47.942;11.804;2022-07-29T08:50:07;2.17;;;1.48;;
21827;SDS011;11076;47.942;11.804;2022-07-29T08:55:10;1.35;;;1.25;;
21827;SDS011;11076;47.942;11.804;2022-07-29T09:00:13;4.18;;;1.63;;
21827;SDS011;11076;47.942;11.804;2022-07-29T09:05:15;2.75;;;1.33;;
21827;SDS011;11076;47.942;11.804;2022-07-29T09:10:18;1.40;;;1.30;;
21827;SDS011;11076;47.942;11.804;2022-07-29T09:15:21;1.38;;;1.20;;
21827;SDS011;11076;47.942;11.804;2022-07-29T09:20:23;2.60;;;1.60;;
21827;SDS011;11076;47.942;11.804;2022-07-29T09:25:35;2.17;;;1.50;;
21827;SDS011;11076;47.942;11.804;2022-07-29T09:30:49;3.58;;;1.67;;
21827;SDS011;11076;47.942;11.804;2022-07-29T09:36:03;1.60;;;1.50;;
21827;SDS011;11076;47.942;11.804;2022-07-29T09:41:06;2.85;;;1.60;;
21827;SDS011;11076;47.942;11.804;2022-07-29T09:46:11;3.20;;;1.40;;
21827;SDS011;11076;47.942;11.804;2022-07-29T09:51:20;4.03;;;1.83;;
21827;SDS011;11076;47.942;11.804;2022-07-29T09:56:43;2.10;;;1.90;;
21827;SDS011;11076;47.942;11.804;2022-07-29T10:01:45;7.55;;;2.28;;
21827;SDS011;11076;47.942;11.804;2022-07-29T10:12:05;2.17;;;2.08;;
21827;SDS011;11076;47.942;11.804;2022-07-29T10:17:12;2.30;;;1.75;;
21827;SDS011;11076;47.942;11.804;2022-07-29T10:22:15;2.42;;;2.00;;
21827;SDS011;11076;47.942;11.804;2022-07-29T10:27:27;2.30;;;1.80;;
21827;SDS011;11076;47.942;11.804;2022-07-29T10:43:21;2.35;;;1.70;;
21827;SDS011;11076;47.942;11.804;2022-07-29T10:54:09;3.47;;;1.85;;
21827;SDS011;11076;47.942;11.804;2022-07-29T10:59:29;3.83;;;2.10;;
21827;SDS011;11076;47.942;11.804;2022-07-29T11:05:17;2.28;;;2.08;;
21827;SDS011;11076;47.942;11.804;2022-07-29T11:15:14;5.03;;;1.88;;
21827;SDS011;11076;47.942;11.804;2022-07-29T11:25:38;4.88;;;2.10;;
21827;SDS011;11076;47.942;11.804;2022-07-29T11:30:51;4.03;;;2.30;;
21827;SDS011;11076;47.942;11.804;2022-07-29T11:41:27;2.08;;;1.77;;
21827;SDS011;11076;47.942;11.804;2022-07-29T11:46:47;2.35;;;1.80;;
21827;SDS011;11076;47.942;11.804;2022-07-29T11:51:54;1.85;;;1.55;;
21827;SDS011;11076;47.942;11.804;2022-07-29T11:56:58;4.57;;;1.70;;
21827;SDS011;11076;47.942;11.804;2022-07-29T12:02:01;2.45;;;1.55;;
21827;SDS011;11076;47.942;11.804;2022-07-29T12:07:26;2.83;;;1.75;;
21827;SDS011;11076;47.942;11.804;2022-07-29T12:12:33;2.63;;;1.65;;
21827;SDS011;11076;47.942;11.804;2022-07-29T12:17:36;4.10;;;1.60;;
21827;SDS011;11076;47.942;11.804;2022-07-29T12:22:39;2.72;;;1.70;;
21827;SDS011;11076;47.942;11.804;2022-07-29T12:27:44;2.10;;;1.90;;
21827;SDS011;11076;47.942;11.804;2022-07-29T12:32:47;1.42;;;1.33;;
21827;SDS011;11076;47.942;11.804;2022-07-29T12:37:50;1.67;;;1.58;;
21827;SDS011;11076;47.942;11.804;2022-07-29T12:43:13;6.07;;;1.70;;
21827;SDS011;11076;47.942;11.804;2022-07-29T12:48:17;1.90;;;1.48;;
21827;SDS011;11076;47.942;11.804;2022-07-29T12:53:34;4.85;;;1.50;;
21827;SDS011;11076;47.942;11.804;2022-07-29T12:58:38;3.03;;;1.65;;
21827;SDS011;11076;47.942;11.804;2022-07-29T13:03:43;3.45;;;1.48;;
21827;SDS011;11076;47.942;11.804;2022-07-29T13:08:59;2.22;;;1.63;;
21827;SDS011;11076;47.942;11.804;2022-07-29T13:14:02;4.53;;;1.50;;
21827;SDS011;11076;47.942;11.804;2022-07-29T13:19:07;1.42;;;1.30;;
21827;SDS011;11076;47.942;11.804;2022-07-29T13:24:13;6.32;;;1.45;;
21827;SDS011;11076;47.942;11.804;2022-07-29T13:29:19;2.42;;;1.88;;
21827;SDS011;11076;47.942;11.804;2022-07-29T13:34:21;1.65;;;1.55;;
21827;SDS011;11076;47.942;11.804;2022-07-29T13:39:26;1.63;;;1.52;;
21827;SDS011;11076;47.942;11.804;2022-07-29T13:44:28;3.47;;;1.63;;
21827;SDS011;11076;47.942;11.804;2022-07-29T13:49:31;3.38;;;1.88;;
21827;SDS011;11076;47.942;11.804;2022-07-29T13:54:33;7.53;;;1.55;;
21827;SDS011;11076;47.942;11.804;2022-07-29T13:59:42;1.40;;;1.38;;
21827;SDS011;11076;47.942;11.804;2022-07-29T14:04:45;3.47;;;2.03;;
21827;SDS011;11076;47.942;11.804;2022-07-29T14:09:47;2.35;;;1.73;;
21827;SDS011;11076;47.942;11.804;2022-07-29T14:14:49;4.40;;;2.10;;
21827;SDS011;11076;47.942;11.804;2022-07-29T14:19:52;11.18;;;2.08;;
21827;SDS011;11076;47.942;11.804;2022-07-29T14:24:54;1.38;;;1.38;;
21827;SDS011;11076;47.942;11.804;2022-07-29T14:29:57;1.98;;;1.88;;
21827;SDS011;11076;47.942;11.804;2022-07-29T14:34:59;3.92;;;1.88;;
21827;SDS011;11076;47.942;11.804;2022-07-29T14:40:02;6.20;;;1.77;;
21827;SDS011;11076;47.942;11.804;2022-07-29T14:45:06;3.10;;;1.75;;
21827;SDS011;11076;47.942;11.804;2022-07-29T14:50:09;2.75;;;1.55;;
21827;SDS011;11076;47.942;11.804;2022-07-29T14:55:12;4.28;;;2.78;;
21827;SDS011;11076;47.942;11.804;2022-07-29T15:00:15;2.28;;;1.90;;
21827;SDS011;11076;47.942;11.804;2022-07-29T15:05:18;5.38;;;1.80;;
21827;SDS011;11076;47.942;11.804;2022-07-29T15:10:21;2.85;;;1.90;;
21827;SDS011;11076;47.942;11.804;2022-07-29T15:15:23;2.10;;;1.77;;
21827;SDS011;11076;47.942;11.804;2022-07-29T15:20:26;2.60;;;2.10;;
21827;SDS011;11076;47.942;11.804;2022-07-29T15:25:29;1.83;;;1.73;;
21827;SDS011;11076;47.942;11.804;2022-07-29T15:30:32;5.20;;;1.63;;
21827;SDS011;11076;47.942;11.804;2022-07-29T15:35:38;2.00;;;1.80;;
21827;SDS011;11076;47.942;11.804;2022-07-29T15:40:41;2.13;;;1.70;;
21827;SDS011;11076;47.942;11.804;2022-07-29T15:45:45;2.88;;;2.08;;
21827;SDS011;11076;47.942;11.804;2022-07-29T15:51:06;3.67;;;2.00;;
21827;SDS011;11076;47.942;11.804;2022-07-29T15:56:08;6.75;;;1.90;;
21827;SDS011;11076;47.942;11.804;2022-07-29T16:01:11;2.05;;;1.90;;
21827;SDS011;11076;47.942;11.804;2022-07-29T16:06:14;4.85;;;2.00;;
21827;SDS011;11076;47.942;11.804;2022-07-29T16:11:16;5.78;;;2.15;;
21827;SDS011;11076;47.942;11.804;2022-07-29T16:16:18;4.25;;;2.13;;
21827;SDS011;11076;47.942;11.804;2022-07-29T16:21:21;5.40;;;2.00;;
21827;SDS011;11076;47.942;11.804;2022-07-29T16:26:26;3.00;;;2.33;;
21827;SDS011;11076;47.942;11.804;2022-07-29T16:31:29;3.65;;;2.10;;
21827;SDS011;11076;47.942;11.804;2022-07-29T16:36:32;3.40;;;1.80;;
21827;SDS011;11076;47.942;11.804;2022-07-29T16:41:34;3.45;;;2.22;;
21827;SDS011;11076;47.942;11.804;2022-07-29T16:46:36;6.65;;;2.03;;
21827;SDS011;11076;47.942;11.804;2022-07-29T16:51:39;4.18;;;1.98;;
21827;SDS011;11076;47.942;11.804;2022-07-29T16:56:41;5.28;;;1.60;;
21827;SDS011;11076;47.942;11.804;2022-07-29T17:01:44;3.50;;;1.77;;
21827;SDS011;11076;47.942;11.804;2022-07-29T17:06:46;2.97;;;1.15;;
21827;SDS011;11076;47.942;11.804;2022-07-29T17:11:50;2.45;;;1.73;;
21827;SDS011;11076;47.942;11.804;2022-07-29T17:16:57;7.05;;;2.17;;
21827;SDS011;11076;47.942;11.804;2022-07-29T17:22:03;2.63;;;2.40;;
21827;SDS011;11076;47.942;11.804;2022-07-29T17:27:12;3.60;;;1.90;;
21827;SDS011;11076;47.942;11.804;2022-07-29T17:32:14;2.90;;;2.13;;
21827;SDS011;11076;47.942;11.804;2022-07-29T17:37:17;3.00;;;2.10;;
21827;SDS011;11076;47.942;11.804;2022-07-29T17:42:20;1.92;;;1.83;;
21827;SDS011;11076;47.942;11.804;2022-07-29T17:47:22;2.05;;;1.85;;
21827;SDS011;11076;47.942;11.804;2022-07-29T17:52:25;4.30;;;2.53;;
21827;SDS011;11076;47.942;11.804;2022-07-29T17:57:27;3.13;;;2.40;;
21827;SDS011;11076;47.942;11.804;2022-07-29T18:02:29;3.28;;;2.03;;
21827;SDS011;11076;47.942;11.804;2022-07-29T18:07:32;3.65;;;2.13;;
21827;SDS011;11076;47.942;11.804;2022-07-29T18:12:34;3.60;;;3.13;;
21827;SDS011;11076;47.942;11.804;2022-07-29T18:17:37;2.78;;;2.53;;
21827;SDS011;11076;47.942;11.804;2022-07-29T18:22:39;4.03;;;2.42;;
21827;SDS011;11076;47.942;11.804;2022-07-29T18:27:42;4.30;;;2.80;;
21827;SDS011;11076;47.942;11.804;2022-07-29T18:32:45;4.55;;;2.25;;
21827;SDS011;11076;47.942;11.804;2022-07-29T18:37:55;3.85;;;2.28;;
21827;SDS011;11076;47.942;11.804;2022-07-29T18:43:00;3.10;;;2.08;;
21827;SDS011;11076;47.942;11.804;2022-07-29T18:48:02;2.60;;;2.08;;
21827;SDS011;11076;47.942;11.804;2022-07-29T18:53:05;3.10;;;2.83;;
21827;SDS011;11076;47.942;11.804;2022-07-29T18:58:07;2.65;;;2.45;;
21827;SDS011;11076;47.942;11.804;2022-07-29T19:03:10;2.70;;;2.50;;
21827;SDS011;11076;47.942;11.804;2022-07-29T19:08:12;3.70;;;2.70;;
21827;SDS011;11076;47.942;11.804;2022-07-29T19:13:15;3.70;;;3.45;;
21827;SDS011;11076;47.942;11.804;2022-07-29T19:18:17;6.03;;;3.08;;
21827;SDS011;11076;47.942;11.804;2022-07-29T19:23:20;4.47;;;3.50;;
21827;SDS011;11076;47.942;11.804;2022-07-29T19:28:23;5.38;;;3.03;;
21827;SDS011;11076;47.942;11.804;2022-07-29T19:33:25;4.85;;;3.03;;
21827;SDS011;11076;47.942;11.804;2022-07-29T19:38:28;5.93;;;3.42;;
21827;SDS011;11076;47.942;11.804;2022-07-29T19:43:30;4.93;;;2.85;;
21827;SDS011;11076;47.942;11.804;2022-07-29T19:48:33;3.67;;;1.90;;
21827;SDS011;11076;47.942;11.804;2022-07-29T19:53:35;2.13;;;1.63;;
21827;SDS011;11076;47.942;11.804;2022-07-29T19:58:38;2.22;;;1.65;;
21827;SDS011;11076;47.942;11.804;2022-07-29T20:03:41;1.55;;;1.45;;
21827;SDS011;11076;47.942;11.804;2022-07-29T20:08:45;1.30;;;1.20;;
21827;SDS011;11076;47.942;11.804;2022-07-29T20:13:48;3.00;;;1.58;;
21827;SDS011;11076;47.942;11.804;2022-07-29T20:18:50;1.50;;;1.40;;
21827;SDS011;11076;47.942;11.804;2022-07-29T20:23:53;1.75;;;1.08;;
21827;SDS011;11076;47.942;11.804;2022-07-29T20:28:57;1.35;;;1.05;;
21827;SDS011;11076;47.942;11.804;2022-07-29T20:34:00;5.15;;;1.30;;
21827;SDS011;11076;47.942;11.804;2022-07-29T20:39:02;1.95;;;1.20;;
21827;SDS011;11076;47.942;11.804;2022-07-29T20:44:05;0.85;;;0.85;;
21827;SDS011;11076;47.942;11.804;2022-07-29T20:49:07;1.05;;;1.05;;
21827;SDS011;11076;47.942;11.804;2022-07-29T20:54:10;3.08;;;1.30;;
21827;SDS011;11076;47.942;11.804;2022-07-29T20:59:13;1.38;;;1.23;;
21827;SDS011;11076;47.942;11.804;2022-07-29T21:04:15;1.00;;;1.00;;
21827;SDS011;11076;47.942;11.804;2022-07-29T21:09:18;1.05;;;0.88;;
21827;SDS011;11076;47.942;11.804;2022-07-29T21:14:21;1.73;;;1.10;;
21827;SDS011;11076;47.942;11.804;2022-07-29T21:19:28;1.17;;;1.13;;
21827;SDS011;11076;47.942;11.804;2022-07-29T21:24:31;1.65;;;1.20;;
21827;SDS011;11076;47.942;11.804;2022-07-29T21:29:33;1.48;;;1.10;;
21827;SDS011;11076;47.942;11.804;2022-07-29T21:34:36;1.65;;;1.50;;
21827;SDS011;11076;47.942;11.804;2022-07-29T21:39:38;1.40;;;1.30;;
21827;SDS011;11076;47.942;11.804;2022-07-29T21:44:41;1.77;;;1.40;;
21827;SDS011;11076;47.942;11.804;2022-07-29T21:49:43;1.70;;;1.60;;
21827;SDS011;11076;47.942;11.804;2022-07-29T21:54:47;3.83;;;1.65;;
21827;SDS011;11076;47.942;11.804;2022-07-29T21:59:50;1.88;;;1.27;;
21827;SDS011;11076;47.942;11.804;2022-07-29T22:04:53;2.92;;;1.60;;
21827;SDS011;11076;47.942;11.804;2022-07-29T22:09:55;1.42;;;1.33;;
21827;SDS011;11076;47.942;11.804;2022-07-29T22:14:58;1.80;;;1.70;;
21827;SDS011;11076;47.942;11.804;2022-07-29T22:20:00;2.50;;;1.58;;
21827;SDS011;11076;47.942;11.804;2022-07-29T22:25:03;1.70;;;1.58;;
21827;SDS011;11076;47.942;11.804;2022-07-29T22:30:06;2.10;;;1.90;;
21827;SDS011;11076;47.942;11.804;2022-07-29T22:35:09;2.33;;;1.95;;
21827;SDS011;11076;47.942;11.804;2022-07-29T22:40:12;2.83;;;2.03;;
21827;SDS011;11076;47.942;11.804;2022-07-29T22:45:14;1.77;;;1.48;;
21827;SDS011;11076;47.942;11.804;2022-07-29T22:50:17;1.98;;;1.67;;
21827;SDS011;11076;47.942;11.804;2022-07-29T22:55:19;2.35;;;2.03;;
21827;SDS011;11076;47.942;11.804;2022-07-29T23:00:22;1.90;;;1.80;;
21827;SDS011;11076;47.942;11.804;2022-07-29T23:05:24;2.30;;;1.83;;
21827;SDS011;11076;47.942;11.804;2022-07-29T23:10:27;2.05;;;1.70;;
21827;SDS011;11076;47.942;11.804;2022-07-29T23:15:29;6.60;;;1.70;;
21827;SDS011;11076;47.942;11.804;2022-07-29T23:20:32;4.03;;;1.60;;
21827;SDS011;11076;47.942;11.804;2022-07-29T23:25:34;1.65;;;1.55;;
21827;SDS011;11076;47.942;11.804;2022-07-29T23:30:37;2.45;;;1.55;;
21827;SDS011;11076;47.942;11.804;2022-07-29T23:35:39;5.55;;;1.83;;
21827;SDS011;11076;47.942;11.804;2022-07-29T23:40:42;4.30;;;1.70;;
21827;SDS011;11076;47.942;11.804;2022-07-29T23:45:44;1.98;;;1.52;;
21827;SDS011;11076;47.942;11.804;2022-07-29T23:50:47;3.45;;;1.65;;
21827;SDS011;11076;47.942;11.804;2022-07-29T23:55:49;2.25;;;1.67;;
